createdAt,value
2023-01-05T00:01:10.059Z,0.40
2023-01-05T00:03:37.356Z,0.30
2023-01-05T00:06:06.839Z,0.30
2023-01-05T00:08:37.436Z,0.30
2023-01-05T00:11:32.366Z,0.43
2023-01-05T00:14:17.970Z,0.40
2023-01-05T00:17:03.321Z,1.10
2023-01-05T00:19:48.734Z,0.37
2023-01-05T00:22:32.348Z,1.50
2023-01-05T00:25:12.223Z,0.33
2023-01-05T00:27:44.702Z,0.40
2023-01-05T00:30:14.403Z,0.27
2023-01-05T00:32:42.280Z,0.30
2023-01-05T00:35:10.281Z,0.30
2023-01-05T00:37:38.421Z,0.30
2023-01-05T00:40:11.116Z,0.40
2023-01-05T00:42:38.227Z,0.30
2023-01-05T00:45:10.728Z,0.40
2023-01-05T00:47:37.231Z,0.40
2023-01-05T00:50:04.916Z,0.40
2023-01-05T00:52:31.404Z,0.50
2023-01-05T00:54:57.933Z,0.50
2023-01-05T00:57:24.577Z,0.57
2023-01-05T00:59:52.871Z,1.00
2023-01-05T01:02:19.723Z,0.60
2023-01-05T01:04:46.329Z,0.80
2023-01-05T01:07:12.839Z,0.70
2023-01-05T01:09:40.538Z,1.60
2023-01-05T01:12:07.389Z,0.70
2023-01-05T01:14:34.755Z,0.70
2023-01-05T01:17:01.271Z,0.93
2023-01-05T01:19:28.403Z,0.70
2023-01-05T01:21:55.391Z,0.70
2023-01-05T01:24:27.491Z,0.77
2023-01-05T01:26:55.464Z,1.23
2023-01-05T01:29:24.085Z,0.60
2023-01-05T01:31:53.327Z,0.70
2023-01-05T01:34:20.229Z,0.53
2023-01-05T01:36:47.059Z,0.57
2023-01-05T01:39:15.391Z,0.70
2023-01-05T01:41:46.255Z,0.90
2023-01-05T01:44:48.098Z,0.50
2023-01-05T01:47:34.961Z,1.30
2023-01-05T01:50:08.497Z,0.33
2023-01-05T01:52:35.778Z,1.03
2023-01-05T01:55:05.415Z,0.20
2023-01-05T01:57:33.580Z,1.03
2023-01-05T02:00:02.530Z,0.30
2023-01-05T02:02:30.565Z,0.30
2023-01-05T02:05:02.079Z,0.50
2023-01-05T02:07:33.626Z,0.20
2023-01-05T02:10:02.455Z,0.10
2023-01-05T02:12:31.983Z,0.20
2023-01-05T02:15:10.759Z,0.20
2023-01-05T02:18:01.577Z,0.20
2023-01-05T02:20:32.497Z,0.83
2023-01-05T02:23:30.033Z,0.67
2023-01-05T02:26:28.010Z,0.20
2023-01-05T02:29:41.711Z,0.30
2023-01-05T02:32:18.741Z,0.53
2023-01-05T02:35:13.777Z,1.83
2023-01-05T02:38:04.577Z,0.40
2023-01-05T02:40:55.216Z,0.50
2023-01-05T02:43:22.221Z,0.47
2023-01-05T02:45:48.891Z,0.40
2023-01-05T02:48:15.951Z,0.97
2023-01-05T02:50:47.021Z,0.67
2023-01-05T02:53:27.912Z,1.77
2023-01-05T02:55:59.217Z,1.90
2023-01-05T02:58:36.749Z,1.17
2023-01-05T03:01:10.286Z,1.33
2023-01-05T03:03:43.034Z,2.40
2023-01-05T03:06:13.551Z,0.87
2023-01-05T03:08:49.841Z,0.87
2023-01-05T03:11:36.980Z,3.73
2023-01-05T03:14:25.440Z,1.90
2023-01-05T03:16:56.293Z,2.13
2023-01-05T03:19:39.391Z,3.47
2023-01-05T03:22:38.052Z,3.57
2023-01-05T03:25:26.964Z,3.57
2023-01-05T03:28:14.297Z,2.87
2023-01-05T03:31:28.648Z,8.47
2023-01-05T03:34:26.618Z,7.37
2023-01-05T03:36:59.911Z,9.40
2023-01-05T03:39:29.068Z,6.20
2023-01-05T03:41:59.848Z,8.63
2023-01-05T03:44:27.143Z,11.23
2023-01-05T03:46:53.872Z,11.00
2023-01-05T03:49:20.471Z,9.97
2023-01-05T03:51:49.241Z,8.50
2023-01-05T03:54:15.999Z,10.07
2023-01-05T03:56:43.161Z,11.37
2023-01-05T03:59:10.178Z,11.37
2023-01-05T04:01:38.839Z,10.47
2023-01-05T04:04:05.559Z,11.80
2023-01-05T04:06:32.218Z,11.10
2023-01-05T04:08:59.001Z,10.37
2023-01-05T04:11:25.824Z,5.73
2023-01-05T04:14:00.093Z,9.50
2023-01-05T04:16:28.533Z,10.53
2023-01-05T04:18:58.073Z,6.47
2023-01-05T04:21:24.598Z,12.57
2023-01-05T04:23:53.680Z,7.50
2023-01-05T04:26:20.156Z,14.50
2023-01-05T04:28:49.528Z,15.13
2023-01-05T04:31:18.004Z,8.47
2023-01-05T04:33:45.456Z,11.07
2023-01-05T04:36:16.059Z,10.90
2023-01-05T04:38:42.583Z,15.50
2023-01-05T04:41:09.313Z,11.87
2023-01-05T04:43:35.890Z,13.60
2023-01-05T04:46:02.845Z,10.33
2023-01-05T04:48:31.834Z,13.27
2023-01-05T04:50:59.053Z,9.87
2023-01-05T04:53:33.470Z,14.77
2023-01-05T04:56:00.313Z,9.17
2023-01-05T04:58:32.401Z,9.17
2023-01-05T05:00:58.922Z,13.93
2023-01-05T05:03:32.912Z,14.63
2023-01-05T05:06:00.745Z,13.60
2023-01-05T05:08:28.464Z,12.70
2023-01-05T05:10:56.005Z,12.97
2023-01-05T05:13:23.210Z,9.40
2023-01-05T05:15:52.482Z,11.60
2023-01-05T05:18:19.505Z,11.80
2023-01-05T05:20:51.753Z,10.90
2023-01-05T05:23:19.096Z,11.60
2023-01-05T05:25:48.963Z,11.97
2023-01-05T05:28:15.502Z,9.27
2023-01-05T05:30:41.929Z,11.87
2023-01-05T05:33:08.356Z,13.03
2023-01-05T05:35:34.755Z,13.63
2023-01-05T05:38:01.397Z,11.23
2023-01-05T05:40:28.304Z,9.77
2023-01-05T05:42:54.907Z,11.87
2023-01-05T05:45:21.295Z,8.70
2023-01-05T05:47:47.789Z,8.53
2023-01-05T05:50:14.198Z,10.07
2023-01-05T05:52:40.835Z,12.87
2023-01-05T05:55:08.051Z,10.77
2023-01-05T05:57:34.656Z,11.07
2023-01-05T06:00:01.868Z,11.80
2023-01-05T06:02:40.017Z,11.43
2023-01-05T06:05:07.048Z,8.83
2023-01-05T06:07:33.476Z,11.93
2023-01-05T06:10:00.032Z,9.20
2023-01-05T06:12:26.478Z,6.43
2023-01-05T06:14:53.186Z,9.27
2023-01-05T06:17:19.665Z,11.87
2023-01-05T06:19:46.103Z,10.03
2023-01-05T06:22:12.614Z,10.70
2023-01-05T06:24:39.191Z,9.77
2023-01-05T06:27:05.747Z,14.83
2023-01-05T06:29:32.185Z,11.33
2023-01-05T06:31:58.635Z,7.77
2023-01-05T06:34:25.171Z,16.10
2023-01-05T06:36:51.569Z,10.03
2023-01-05T06:39:18.169Z,9.30
2023-01-05T06:41:44.718Z,8.70
2023-01-05T06:44:11.433Z,11.00
2023-01-05T06:46:37.950Z,9.83
2023-01-05T06:49:04.509Z,11.50
2023-01-05T06:51:31.743Z,10.47
2023-01-05T06:53:58.116Z,12.47
2023-01-05T06:56:24.587Z,11.77
2023-01-05T06:58:51.090Z,12.40
2023-01-05T07:01:17.699Z,14.07
2023-01-05T07:03:44.275Z,14.47
2023-01-05T07:06:15.179Z,14.00
2023-01-05T07:08:42.960Z,8.70
2023-01-05T07:11:09.722Z,13.73
2023-01-05T07:13:36.558Z,13.90
2023-01-05T07:16:03.103Z,10.37
2023-01-05T07:18:29.555Z,10.83
2023-01-05T07:20:56.105Z,14.57
2023-01-05T07:23:22.503Z,11.50
2023-01-05T07:25:48.933Z,7.57
2023-01-05T07:28:15.473Z,7.20
2023-01-05T07:30:41.975Z,9.73
2023-01-05T07:33:08.667Z,8.83
2023-01-05T07:35:35.132Z,11.67
2023-01-05T07:38:01.540Z,11.40
2023-01-05T07:40:28.433Z,12.73
2023-01-05T07:42:55.106Z,6.93
2023-01-05T07:45:21.679Z,12.43
2023-01-05T07:47:48.112Z,12.27
2023-01-05T07:50:14.667Z,12.13
2023-01-05T07:52:41.135Z,9.50
2023-01-05T07:55:08.158Z,11.77
2023-01-05T07:57:34.583Z,8.50
2023-01-05T08:00:02.323Z,13.17
2023-01-05T08:02:38.155Z,10.70
2023-01-05T08:05:04.983Z,12.40
2023-01-05T08:07:31.418Z,9.63
2023-01-05T08:10:16.380Z,14.77
2023-01-05T08:13:01.265Z,10.20
2023-01-05T08:15:27.674Z,7.83
2023-01-05T08:17:54.118Z,11.43
2023-01-05T08:20:20.580Z,9.50
2023-01-05T08:22:51.399Z,8.43
2023-01-05T08:25:18.235Z,15.90
2023-01-05T08:27:45.542Z,11.63
2023-01-05T08:30:12.744Z,14.10
2023-01-05T08:32:40.417Z,10.47
2023-01-05T08:35:07.324Z,8.87
2023-01-05T08:37:33.728Z,7.57
2023-01-05T08:40:00.254Z,9.83
2023-01-05T08:42:26.711Z,9.10
2023-01-05T08:44:53.129Z,10.67
2023-01-05T08:47:20.209Z,11.53
2023-01-05T08:49:49.732Z,11.40
2023-01-05T08:52:16.159Z,11.00
2023-01-05T08:54:43.853Z,12.80
2023-01-05T08:57:10.396Z,12.80
2023-01-05T08:59:36.925Z,11.43
2023-01-05T09:02:03.451Z,8.40
2023-01-05T09:04:30.016Z,7.63
2023-01-05T09:06:56.485Z,9.43
2023-01-05T09:09:24.336Z,11.77
2023-01-05T09:11:51.778Z,10.50
2023-01-05T09:14:18.761Z,14.47
2023-01-05T09:19:31.667Z,18.43
2023-01-05T09:21:58.402Z,12.07
2023-01-05T09:24:24.904Z,15.17
2023-01-05T09:26:51.388Z,15.33
2023-01-05T09:29:17.879Z,14.23
2023-01-05T09:31:44.573Z,11.07
2023-01-05T09:34:11.245Z,12.87
2023-01-05T09:36:41.417Z,11.60
2023-01-05T09:39:07.904Z,12.37
2023-01-05T09:41:44.966Z,11.60
2023-01-05T09:44:53.962Z,13.83
2023-01-05T09:47:41.257Z,9.33
2023-01-05T09:50:18.663Z,11.77
2023-01-05T09:52:45.255Z,13.70
2023-01-05T09:55:19.678Z,13.57
2023-01-05T09:57:54.642Z,12.83
2023-01-05T10:00:24.240Z,10.53
2023-01-05T10:02:57.862Z,9.57
2023-01-05T10:05:27.484Z,11.87
2023-01-05T10:08:08.019Z,12.10
2023-01-05T10:11:21.165Z,12.63
2023-01-05T10:14:06.548Z,9.57
2023-01-05T10:16:33.203Z,10.30
2023-01-05T10:19:01.560Z,15.93
2023-01-05T10:21:35.056Z,12.10
2023-01-05T10:24:19.242Z,9.53
2023-01-05T10:27:24.798Z,13.87
2023-01-05T10:30:17.651Z,12.50
2023-01-05T10:33:25.816Z,9.57
2023-01-05T10:36:10.407Z,12.83
2023-01-05T10:39:06.943Z,17.93
2023-01-05T10:41:42.202Z,10.77
2023-01-05T10:44:34.632Z,11.57
2023-01-05T10:47:01.866Z,13.67
2023-01-05T10:49:31.192Z,13.37
2023-01-05T10:52:00.149Z,10.57
2023-01-05T10:54:43.183Z,10.70
2023-01-05T10:57:34.060Z,13.73
2023-01-05T11:00:12.218Z,12.77
2023-01-05T11:02:42.812Z,14.10
2023-01-05T11:05:09.953Z,18.70
2023-01-05T11:07:54.952Z,13.97
2023-01-05T11:10:25.885Z,12.00
2023-01-05T11:13:02.307Z,13.80
2023-01-05T11:15:31.834Z,10.90
2023-01-05T11:17:58.693Z,10.20
2023-01-05T11:20:29.047Z,14.00
2023-01-05T11:22:55.577Z,14.63
2023-01-05T11:25:29.744Z,12.17
2023-01-05T11:28:09.336Z,19.47
2023-01-05T11:30:36.815Z,14.90
2023-01-05T11:33:03.686Z,11.97
2023-01-05T11:35:37.672Z,12.23
2023-01-05T11:38:04.525Z,14.17
2023-01-05T11:40:34.374Z,12.37
2023-01-05T11:43:09.250Z,14.97
2023-01-05T11:45:45.202Z,12.47
2023-01-05T11:48:19.469Z,10.17
2023-01-05T11:50:49.278Z,16.57
2023-01-05T11:53:25.139Z,11.17
2023-01-05T11:56:23.706Z,11.73
2023-01-05T11:58:54.700Z,14.93
2023-01-05T12:01:57.372Z,14.90
2023-01-05T12:04:45.119Z,10.10
2023-01-05T12:07:23.094Z,9.80
2023-01-05T12:10:17.720Z,13.40
2023-01-05T12:13:24.568Z,14.93
2023-01-05T12:16:16.233Z,12.13
2023-01-05T12:19:07.704Z,15.57
2023-01-05T12:22:02.148Z,11.67
2023-01-05T12:24:36.882Z,14.87
2023-01-05T12:27:19.794Z,12.23
2023-01-05T12:35:54.569Z,11.63
2023-01-05T12:38:36.654Z,18.37
2023-01-05T12:41:16.788Z,13.30
2023-01-05T12:44:25.346Z,14.47
2023-01-05T12:47:16.649Z,17.77
2023-01-05T12:49:52.703Z,10.73
2023-01-05T12:52:36.178Z,13.17
2023-01-05T12:55:13.020Z,14.47
2023-01-05T12:57:45.452Z,13.90
2023-01-05T13:00:18.858Z,11.17
2023-01-05T13:03:01.176Z,11.43
2023-01-05T13:05:34.426Z,11.23
2023-01-05T13:08:42.133Z,11.23
2023-01-05T13:11:33.882Z,9.67
2023-01-05T13:14:05.842Z,14.50
2023-01-05T13:16:45.362Z,13.13
2023-01-05T13:19:28.323Z,11.20
2023-01-05T13:21:57.372Z,12.57
2023-01-05T13:24:35.146Z,13.47
2023-01-05T13:27:02.913Z,14.87
2023-01-05T13:29:36.952Z,12.23
2023-01-05T13:32:12.515Z,15.10
2023-01-05T13:35:08.848Z,13.77
2023-01-05T13:38:14.532Z,18.67
2023-01-05T13:40:53.123Z,14.40
2023-01-05T13:43:50.706Z,11.90
2023-01-05T13:46:41.983Z,9.13
2023-01-05T13:49:22.310Z,14.23
2023-01-05T13:51:54.608Z,19.57
2023-01-05T13:54:49.472Z,13.57
2023-01-05T13:57:24.770Z,14.27
2023-01-05T14:00:06.827Z,19.73
2023-01-05T14:02:43.616Z,14.97
2023-01-05T14:05:31.762Z,15.30
2023-01-05T14:08:02.439Z,13.37
2023-01-05T14:10:32.287Z,12.60
2023-01-05T14:13:00.203Z,15.70
2023-01-05T14:15:35.420Z,14.33
2023-01-05T14:18:04.162Z,14.03
2023-01-05T14:20:33.646Z,16.03
2023-01-05T14:23:01.769Z,14.27
2023-01-05T14:25:40.182Z,13.07
2023-01-05T14:28:28.421Z,11.87
2023-01-05T14:31:16.831Z,11.07
2023-01-05T14:33:58.416Z,13.10
2023-01-05T14:36:31.409Z,10.60
2023-01-05T14:38:59.845Z,14.67
2023-01-05T14:41:29.038Z,10.00
2023-01-05T14:44:01.497Z,11.90
2023-01-05T14:46:42.000Z,13.10
2023-01-05T14:49:16.728Z,14.37
2023-01-05T14:51:54.116Z,9.40
2023-01-05T14:54:40.978Z,9.73
2023-01-05T14:57:36.397Z,14.87
2023-01-05T15:00:15.431Z,13.37
2023-01-05T15:03:09.764Z,19.27
2023-01-05T15:05:46.618Z,24.70
2023-01-05T15:08:24.851Z,35.00
2023-01-05T15:11:04.205Z,40.03
2023-01-05T15:14:07.413Z,39.43
2023-01-05T15:16:58.706Z,34.07
2023-01-05T15:19:31.183Z,15.30
2023-01-05T15:22:18.635Z,13.87
2023-01-05T15:24:58.231Z,12.87
2023-01-05T15:28:02.320Z,12.87
2023-01-05T15:30:52.111Z,17.50
2023-01-05T15:33:35.902Z,16.97
2023-01-05T15:36:05.177Z,19.67
2023-01-05T15:38:42.927Z,11.80
2023-01-05T15:41:11.944Z,21.43
2023-01-05T15:43:41.106Z,18.77
2023-01-05T15:46:10.150Z,12.67
2023-01-05T15:48:45.515Z,13.07
2023-01-05T15:51:23.390Z,19.43
2023-01-05T15:53:55.784Z,12.87
2023-01-05T15:56:39.570Z,17.17
2023-01-05T15:59:22.105Z,19.43
2023-01-05T16:01:48.545Z,14.73
2023-01-05T16:04:15.435Z,14.87
2023-01-05T16:06:46.275Z,18.30
2023-01-05T16:09:38.507Z,13.20
2023-01-05T16:12:23.330Z,16.27
2023-01-05T16:15:01.489Z,10.67
2023-01-05T16:17:31.221Z,9.50
2023-01-05T16:20:09.357Z,14.40
2023-01-05T16:23:00.981Z,15.30
2023-01-05T16:25:30.605Z,12.60
2023-01-05T16:28:07.171Z,13.97
2023-01-05T16:30:38.046Z,13.43
2023-01-05T16:33:13.475Z,10.70
2023-01-05T16:35:48.099Z,13.47
2023-01-05T16:38:20.530Z,16.43
2023-01-05T16:40:46.916Z,11.73
2023-01-05T16:43:34.544Z,13.00
2023-01-05T16:46:18.900Z,16.53
2023-01-05T16:48:49.334Z,15.87
2023-01-05T16:51:21.841Z,12.57
2023-01-05T16:54:04.431Z,10.23
2023-01-05T16:56:33.744Z,17.97
2023-01-05T16:59:02.280Z,10.37
2023-01-05T17:01:41.844Z,12.97
2023-01-05T17:04:15.948Z,13.67
2023-01-05T17:06:48.024Z,13.60
2023-01-05T17:09:25.438Z,14.77
2023-01-05T17:11:52.083Z,13.53
2023-01-05T17:14:20.181Z,13.67
2023-01-05T17:16:47.612Z,10.47
2023-01-05T17:19:16.325Z,15.73
2023-01-05T17:21:53.660Z,15.67
2023-01-05T17:24:20.255Z,13.83
2023-01-05T17:26:46.912Z,9.40
2023-01-05T17:29:27.730Z,13.10
2023-01-05T17:31:54.893Z,11.57
2023-01-05T17:34:22.151Z,11.77
2023-01-05T17:36:49.991Z,15.07
2023-01-05T17:39:18.854Z,16.67
2023-01-05T17:41:45.531Z,15.20
2023-01-05T17:44:12.161Z,16.17
2023-01-05T17:46:41.801Z,16.10
2023-01-05T17:49:20.969Z,15.83
2023-01-05T17:51:47.791Z,13.73
2023-01-05T17:54:14.363Z,13.27
2023-01-05T17:56:40.788Z,12.93
2023-01-05T17:59:07.248Z,18.60
2023-01-05T18:01:33.990Z,20.83
2023-01-05T18:04:01.181Z,11.93
2023-01-05T18:06:28.204Z,13.17
2023-01-05T18:08:54.931Z,17.80
2023-01-05T18:11:21.556Z,12.73
2023-01-05T18:13:48.042Z,14.03
2023-01-05T18:16:15.406Z,14.57
2023-01-05T18:18:41.882Z,14.33
2023-01-05T18:21:08.322Z,17.13
2023-01-05T18:23:35.114Z,15.57
2023-01-05T18:26:07.101Z,17.50
2023-01-05T18:28:37.383Z,14.53
2023-01-05T18:31:15.444Z,12.40
2023-01-05T18:33:42.063Z,12.33
2023-01-05T18:36:12.775Z,11.50
2023-01-05T18:38:40.116Z,50.70
2023-01-05T18:41:06.863Z,43.97
2023-01-05T18:43:34.017Z,43.03
2023-01-05T18:46:01.100Z,32.17
2023-01-05T18:48:27.529Z,33.73
2023-01-05T18:50:54.128Z,29.33
2023-01-05T18:53:21.668Z,27.83
2023-01-05T18:55:48.948Z,28.20
2023-01-05T18:58:15.613Z,28.47
2023-01-05T19:00:43.720Z,24.53
2023-01-05T19:03:10.781Z,25.70
2023-01-05T19:05:41.968Z,9.50
2023-01-05T19:08:09.871Z,10.10
2023-01-05T19:10:37.277Z,7.87
2023-01-05T19:13:04.438Z,9.70
2023-01-05T19:15:33.550Z,7.93
2023-01-05T19:18:00.295Z,5.17
2023-01-05T19:20:26.767Z,6.97
2023-01-05T19:22:53.231Z,4.27
2023-01-05T19:25:19.883Z,5.27
2023-01-05T19:27:46.472Z,9.53
2023-01-05T19:30:14.909Z,7.97
2023-01-05T19:32:41.367Z,8.93
2023-01-05T19:35:07.962Z,8.17
2023-01-05T19:37:35.520Z,6.83
2023-01-05T19:40:02.672Z,6.50
2023-01-05T19:42:30.706Z,4.77
2023-01-05T19:44:57.324Z,3.97
2023-01-05T19:47:23.753Z,4.90
2023-01-05T19:49:50.192Z,3.90
2023-01-05T19:52:16.670Z,9.20
2023-01-05T19:54:43.169Z,7.40
2023-01-05T19:57:09.655Z,4.17
2023-01-05T19:59:36.279Z,5.93
2023-01-05T20:02:04.838Z,3.77
2023-01-05T20:04:32.253Z,6.20
2023-01-05T20:06:59.250Z,3.70
2023-01-05T20:09:25.864Z,5.53
2023-01-05T20:11:59.542Z,3.83
2023-01-05T20:14:32.885Z,8.87
2023-01-05T20:17:02.449Z,4.90
2023-01-05T20:19:31.261Z,5.73
2023-01-05T20:21:59.239Z,4.17
2023-01-05T20:24:30.110Z,4.47
2023-01-05T20:26:59.986Z,6.33
2023-01-05T20:29:27.431Z,4.90
2023-01-05T20:32:01.559Z,4.30
2023-01-05T20:34:32.101Z,6.23
2023-01-05T20:36:59.668Z,6.30
2023-01-05T20:39:26.111Z,5.67
2023-01-05T20:41:53.960Z,10.87
2023-01-05T20:44:23.684Z,6.40
2023-01-05T20:46:53.784Z,3.97
2023-01-05T20:49:21.812Z,3.53
2023-01-05T20:51:48.616Z,6.03
2023-01-05T20:54:15.174Z,5.47
2023-01-05T20:56:43.695Z,3.50
2023-01-05T20:59:19.527Z,4.00
2023-01-05T21:01:46.751Z,3.30
2023-01-05T21:04:13.723Z,3.43
2023-01-05T21:06:41.543Z,5.43
2023-01-05T21:09:08.609Z,4.47
2023-01-05T21:11:36.078Z,5.97
2023-01-05T21:14:03.909Z,7.03
2023-01-05T21:16:34.596Z,4.43
2023-01-05T21:19:01.967Z,6.70
2023-01-05T21:21:29.544Z,4.53
2023-01-05T21:23:56.286Z,4.80
2023-01-05T21:26:23.489Z,6.17
2023-01-05T21:28:51.865Z,8.57
2023-01-05T21:31:22.784Z,11.00
2023-01-05T21:33:49.779Z,4.37
2023-01-05T21:36:22.619Z,3.80
2023-01-05T21:39:01.602Z,2.40
2023-01-05T21:41:49.828Z,2.30
2023-01-05T21:44:16.983Z,3.20
2023-01-05T21:46:44.243Z,5.23
2023-01-05T21:49:12.005Z,2.60
2023-01-05T21:51:57.848Z,3.20
2023-01-05T21:54:43.829Z,3.50
2023-01-05T21:57:11.021Z,6.27
2023-01-05T21:59:38.892Z,2.67
2023-01-05T22:02:05.443Z,3.07
2023-01-05T22:04:32.001Z,2.50
2023-01-05T22:06:59.453Z,1.50
2023-01-05T22:09:26.003Z,2.20
2023-01-05T22:11:52.494Z,1.10
2023-01-05T22:14:18.923Z,2.50
2023-01-05T22:16:45.322Z,3.47
2023-01-05T22:19:12.007Z,2.33
2023-01-05T22:21:38.691Z,4.23
2023-01-05T22:24:06.424Z,2.50
2023-01-05T22:26:32.945Z,1.87
2023-01-05T22:28:59.409Z,4.13
2023-01-05T22:31:29.551Z,4.60
2023-01-05T22:33:58.434Z,2.63
2023-01-05T22:36:26.714Z,4.73
2023-01-05T22:38:54.093Z,2.50
2023-01-05T22:41:26.732Z,2.63
2023-01-05T22:43:53.542Z,1.90
2023-01-05T22:46:26.247Z,3.90
2023-01-05T22:48:54.641Z,3.13
2023-01-05T22:51:24.323Z,2.73
2023-01-05T22:53:51.294Z,3.20
2023-01-05T22:56:19.984Z,2.10
2023-01-05T22:58:46.774Z,2.20
2023-01-05T23:01:18.584Z,2.30
2023-01-05T23:03:45.292Z,2.87
2023-01-05T23:06:12.217Z,2.30
2023-01-05T23:08:40.546Z,4.27
2023-01-05T23:11:10.866Z,4.57
2023-01-05T23:13:37.946Z,2.80
2023-01-05T23:16:05.459Z,4.10
2023-01-05T23:18:33.852Z,2.93
2023-01-05T23:21:02.869Z,2.20
2023-01-05T23:23:31.120Z,2.93
2023-01-05T23:25:57.588Z,3.20
2023-01-05T23:28:26.201Z,1.80
2023-01-05T23:30:54.566Z,2.23
2023-01-05T23:33:25.215Z,2.13
2023-01-05T23:35:53.331Z,2.00
2023-01-05T23:38:20.268Z,1.50
2023-01-05T23:40:49.521Z,1.70
2023-01-05T23:43:18.926Z,1.70
2023-01-05T23:45:45.993Z,2.67
2023-01-05T23:48:12.951Z,1.70
2023-01-05T23:50:43.690Z,2.37
2023-01-05T23:53:11.377Z,1.83
2023-01-05T23:55:38.707Z,3.03
2023-01-05T23:58:05.911Z,5.17
